Time;durP1;ratioP1;P1;durP2;ratioP2;P2;SDS_P1;SDS_P2;PMS_P1;PMS_P2;Temp;Humidity;BMP_temperature;BMP_pressure;BME280_temperature;BME280_humidity;BME280_pressure;Samples;Min_cycle;Max_cycle;Signal;HPM_P1;HPM_P2
2023/01/24 00:00:46;;;;;;;5.65;1.80;;;;;;;8.98;100.00;102525.13;5101929;28;20526;-82
2023/01/24 00:03:13;;;;;;;4.93;1.85;;;;;;;9.10;100.00;102546.91;5106961;28;20051;-82
2023/01/24 00:05:41;;;;;;;5.55;1.70;;;;;;;9.18;100.00;102544.25;5100671;28;20069;-82
2023/01/24 00:08:08;;;;;;;6.03;1.88;;;;;;;9.29;100.00;102544.22;5104012;28;20051;-82
2023/01/24 00:10:36;;;;;;;3.67;1.40;;;;;;;9.36;100.00;102532.88;5103156;28;20405;-82
2023/01/24 00:13:02;;;;;;;3.80;1.58;;;;;;;9.39;100.00;102534.63;5103401;28;20382;-82
2023/01/24 00:15:29;;;;;;;3.92;1.45;;;;;;;9.48;100.00;102532.81;5100428;28;20466;-82
2023/01/24 00:17:56;;;;;;;3.40;1.48;;;;;;;9.49;100.00;102534.56;5103679;28;20048;-81
2023/01/24 00:20:24;;;;;;;2.97;1.30;;;;;;;9.26;100.00;102490.22;5101658;28;20063;-81
2023/01/24 00:22:51;;;;;;;2.80;1.40;;;;;;;9.62;100.00;102531.91;5102503;28;20393;-82
2023/01/24 00:25:18;;;;;;;5.55;1.50;;;;;;;9.32;100.00;102490.19;5108030;28;20477;-81
2023/01/24 00:27:45;;;;;;;2.83;1.33;;;;;;;9.66;100.00;102529.25;5102136;28;20043;-82
2023/01/24 00:30:11;;;;;;;2.35;1.15;;;;;;;9.45;100.00;102500.59;5100201;28;20056;-82
2023/01/24 00:32:38;;;;;;;5.40;1.40;;;;;;;9.56;100.00;102522.34;5101261;28;20051;-82
2023/01/24 00:35:06;;;;;;;4.47;1.50;;;;;;;9.19;100.00;102539.88;5105290;28;20052;-82
2023/01/24 00:37:33;;;;;;;5.28;1.50;;;;;;;9.07;100.00;102535.59;5099509;28;20043;-82
2023/01/24 00:39:59;;;;;;;9.32;2.38;;;;;;;8.81;100.00;102494.69;5102516;28;20044;-82
2023/01/24 00:42:26;;;;;;;4.70;1.70;;;;;;;8.80;100.00;102516.50;5103550;28;20043;-82
2023/01/24 00:44:53;;;;;;;7.00;2.20;;;;;;;8.88;100.00;102538.22;5100151;28;20481;-81
2023/01/24 00:47:19;;;;;;;6.72;2.50;;;;;;;8.73;100.00;102527.81;5103598;28;20385;-82
2023/01/24 00:49:46;;;;;;;7.32;2.35;;;;;;;8.72;100.00;102534.75;5103422;28;20048;-82
2023/01/24 00:52:13;;;;;;;7.07;2.58;;;;;;;8.57;100.00;102524.34;5100444;28;20044;-82
2023/01/24 00:54:40;;;;;;;7.28;2.30;;;;;;;8.48;100.00;102508.66;5105660;28;20043;-82
2023/01/24 00:57:07;;;;;;;6.07;2.05;;;;;;;8.66;100.00;102549.59;5101852;28;20044;-82
2023/01/24 00:59:33;;;;;;;7.13;2.20;;;;;;;8.53;100.00;102526.09;5103303;28;20048;-82
2023/01/24 01:02:00;;;;;;;7.00;2.13;;;;;;;8.67;100.00;102546.09;5098812;28;20048;-82
2023/01/24 01:04:27;;;;;;;6.63;2.45;;;;;;;8.45;100.00;102506.94;5097998;28;20055;-81
2023/01/24 01:06:54;;;;;;;8.23;2.20;;;;;;;8.64;100.00;102539.16;5096808;28;20039;-82
2023/01/24 01:09:21;;;;;;;8.10;2.50;;;;;;;8.46;100.00;102505.19;5099633;28;20093;-82
2023/01/24 01:11:47;;;;;;;5.43;1.80;;;;;;;8.58;100.00;102510.41;5103010;28;20055;-82
2023/01/24 01:14:14;;;;;;;5.28;2.03;;;;;;;8.83;100.00;102553.03;5100612;28;20062;-82
2023/01/24 01:16:41;;;;;;;7.28;2.22;;;;;;;8.68;100.00;102516.50;5092496;28;20044;-82
2023/01/24 01:19:09;;;;;;;5.07;1.73;;;;;;;8.88;100.00;102546.06;5104821;28;20054;-82
2023/01/24 01:21:35;;;;;;;8.02;2.05;;;;;;;8.82;100.00;102542.56;5102110;28;20055;-82
2023/01/24 01:24:02;;;;;;;5.60;1.73;;;;;;;8.88;100.00;102545.19;5099250;28;20060;-82
2023/01/24 01:26:31;;;;;;;4.68;1.50;;;;;;;8.85;100.00;102533.03;5098992;28;20056;-82
2023/01/24 01:28:58;;;;;;;4.03;1.70;;;;;;;8.98;100.00;102551.25;5096903;28;20127;-82
2023/01/24 01:31:25;;;;;;;3.10;1.52;;;;;;;8.84;100.00;102517.34;5105111;28;20044;-82
2023/01/24 01:33:51;;;;;;;4.15;1.38;;;;;;;9.03;100.00;102539.94;5100751;28;20101;-82
2023/01/24 01:36:18;;;;;;;2.95;1.30;;;;;;;8.97;100.00;102523.41;5101350;28;20051;-82
2023/01/24 01:38:45;;;;;;;4.40;1.30;;;;;;;9.22;100.00;102547.72;5094251;28;20043;-82
2023/01/24 01:41:13;;;;;;;2.78;1.27;;;;;;;9.26;100.00;102546.84;5099359;28;20100;-82
2023/01/24 01:44:37;;;;;;;2.22;1.20;;;;;;;9.34;100.00;102552.91;5096661;28;20056;-82
2023/01/24 01:46:37;;;;;;;5.07;1.52;;;;;;;9.32;100.00;102555.53;5097056;28;20051;-82
2023/01/24 01:49:05;;;;;;;4.68;1.20;;;;;;;9.28;100.00;102556.44;5100182;28;20393;-82
2023/01/24 01:51:47;;;;;;;3.33;1.27;;;;;;;9.30;100.00;102561.66;5103270;28;20075;-82
2023/01/24 01:54:22;;;;;;;4.18;1.40;;;;;;;9.30;100.00;102572.97;5102393;28;20044;-83
2023/01/24 01:56:54;;;;;;;5.88;2.00;;;;;;;8.96;100.00;102540.84;5097029;28;20051;-82
2023/01/24 01:59:37;;;;;;;6.38;1.95;;;;;;;9.11;100.00;102576.50;5103386;28;20051;-81
2023/01/24 02:02:07;;;;;;;4.07;1.70;;;;;;;9.11;100.00;102579.13;5093661;28;20077;-82
2023/01/24 02:04:41;;;;;;;6.05;1.92;;;;;;;9.03;100.00;102565.19;5097641;28;20101;-81
2023/01/24 02:07:28;;;;;;;7.05;1.83;;;;;;;9.45;100.00;102571.19;5098561;28;20050;-81
2023/01/24 02:09:55;;;;;;;5.05;1.85;;;;;;;9.12;100.00;102576.50;5100500;28;20075;-81
2023/01/24 02:12:31;;;;;;;7.47;2.10;;;;;;;8.99;100.00;102563.47;5098731;28;20318;-82
2023/01/24 02:17:50;;;;;;;6.05;1.80;;;;;;;9.50;100.00;102564.19;5102608;28;20052;-82
2023/01/24 02:20:37;;;;;;;4.10;1.55;;;;;;;9.31;100.00;102582.56;5103482;28;20045;-82
2023/01/24 02:23:26;;;;;;;3.13;1.60;;;;;;;9.65;100.00;102584.16;5101627;28;20051;-82
2023/01/24 02:26:12;;;;;;;3.80;1.50;;;;;;;9.34;100.00;102528.53;5099833;28;20048;-82
2023/01/24 02:28:43;;;;;;;3.95;1.60;;;;;;;9.44;100.00;102566.84;5107623;28;20044;-82
2023/01/24 02:31:10;;;;;;;6.70;1.60;;;;;;;9.17;100.00;102573.91;5106376;28;20112;-82
2023/01/24 02:33:37;;;;;;;3.33;1.40;;;;;;;8.89;100.00;102553.03;5118420;27;20052;-82
2023/01/24 02:36:19;;;;;;;4.90;1.42;;;;;;;9.15;100.00;102598.28;5105293;28;20481;-82
2023/01/24 02:39:16;;;;;;;3.22;1.30;;;;;;;8.83;100.00;102542.59;5107075;28;20040;-82
2023/01/24 02:41:48;;;;;;;2.00;1.10;;;;;;;9.20;100.00;102596.53;5106320;28;20480;-82
2023/01/24 02:44:57;;;;;;;2.75;1.20;;;;;;;9.33;100.00;102587.78;5105698;28;20048;-82
2023/01/24 02:47:32;;;;;;;2.97;1.10;;;;;;;9.39;100.00;102600.84;5103016;28;20499;-82
2023/01/24 02:50:00;;;;;;;2.85;1.05;;;;;;;9.48;100.00;102599.94;5105357;28;20040;-82
2023/01/24 02:55:13;;;;;;;0.98;0.88;;;;;;;9.60;100.00;102591.19;5103240;28;20075;-82
2023/01/24 03:00:25;;;;;;;1.98;1.00;;;;;;;9.71;100.00;102592.00;5105530;28;20059;-82
2023/01/24 03:02:52;;;;;;;1.33;1.00;;;;;;;9.73;100.00;102586.78;5105625;28;20067;-82
2023/01/24 03:05:19;;;;;;;2.70;1.00;;;;;;;9.72;100.00;102591.16;5101636;28;20097;-82
2023/01/24 03:07:46;;;;;;;2.22;1.10;;;;;;;9.61;100.00;102559.78;5099268;28;20048;-82
2023/01/24 03:10:16;;;;;;;1.27;1.00;;;;;;;9.77;100.00;102589.34;5104872;28;20168;-82
2023/01/24 03:34:49;;;;;;;3.22;1.42;;;;;;;9.24;100.00;102583.47;5104017;28;20090;-81
2023/01/24 03:40:10;;;;;;;3.42;1.45;;;;;;;9.27;100.00;102587.78;5104722;28;20059;-81
2023/01/24 03:42:46;;;;;;;5.10;1.50;;;;;;;9.05;100.00;102548.66;5104198;28;20048;-81
2023/01/24 03:45:25;;;;;;;2.40;1.40;;;;;;;9.30;100.00;102585.19;5101264;28;20143;-81
2023/01/24 03:47:54;;;;;;;5.13;1.40;;;;;;;9.25;100.00;102585.19;5105793;28;20058;-81
2023/01/24 03:53:12;;;;;;;3.28;1.40;;;;;;;9.22;100.00;102589.53;5102886;28;20624;-82
2023/01/24 03:55:39;;;;;;;4.78;1.40;;;;;;;9.24;100.00;102603.47;5102507;28;20051;-81
2023/01/24 03:58:07;;;;;;;3.17;1.33;;;;;;;9.15;100.00;102595.66;5105827;28;20485;-81
2023/01/24 04:00:35;;;;;;;2.85;1.35;;;;;;;9.70;100.00;102603.34;5101721;28;20417;-82
2023/01/24 04:03:02;;;;;;;3.05;1.40;;;;;;;9.69;100.00;102583.31;5097909;28;20047;-81
2023/01/24 04:05:29;;;;;;;2.67;1.30;;;;;;;9.83;100.00;102607.66;5104583;28;20047;-82
2023/01/24 04:07:56;;;;;;;2.70;1.20;;;;;;;9.78;100.00;102598.09;5097511;28;20070;-81
2023/01/24 04:10:23;;;;;;;3.13;1.45;;;;;;;9.59;100.00;102578.97;5104110;28;20055;-82
2023/01/24 04:12:49;;;;;;;3.55;1.33;;;;;;;9.50;100.00;102565.06;5105303;28;20055;-82
2023/01/24 04:15:19;;;;;;;1.83;1.10;;;;;;;9.65;100.00;102587.69;5100394;28;20457;-81
2023/01/24 04:17:47;;;;;;;2.55;1.20;;;;;;;9.75;100.00;102601.56;5098160;28;20093;-82
2023/01/24 04:20:14;;;;;;;4.63;1.48;;;;;;;9.75;100.00;102612.03;5099826;28;20102;-82
2023/01/24 04:22:41;;;;;;;3.15;1.27;;;;;;;9.75;100.00;102603.31;5100675;28;20044;-82
2023/01/24 04:25:09;;;;;;;3.63;1.40;;;;;;;9.84;100.00;102605.88;5097009;28;20048;-82
2023/01/24 04:27:37;;;;;;;2.55;1.20;;;;;;;9.81;100.00;102604.19;5106494;28;20055;-81
2023/01/24 04:30:09;;;;;;;3.40;1.48;;;;;;;9.83;100.00;102594.56;5102872;28;20060;-82
2023/01/24 04:32:36;;;;;;;2.92;1.20;;;;;;;9.81;100.00;102593.72;5102675;28;20461;-82
2023/01/24 04:35:04;;;;;;;3.03;1.20;;;;;;;9.69;100.00;102570.22;5098764;28;20055;-82
2023/01/24 04:37:32;;;;;;;2.67;1.23;;;;;;;9.68;100.00;102584.16;5102444;28;20093;-81
2023/01/24 04:40:01;;;;;;;3.88;1.33;;;;;;;9.62;100.00;102592.91;5101140;28;20071;-82
2023/01/24 04:42:27;;;;;;;3.00;1.30;;;;;;;9.45;100.00;102568.56;5100979;28;20520;-81
2023/01/24 04:44:54;;;;;;;4.07;1.30;;;;;;;9.66;100.00;102592.00;5105936;28;20386;-82
2023/01/24 04:47:21;;;;;;;3.80;1.52;;;;;;;9.59;100.00;102568.50;5097125;28;20040;-82
2023/01/24 04:49:47;;;;;;;2.75;1.30;;;;;;;9.61;100.00;102567.63;5097168;28;20051;-82
2023/01/24 04:52:14;;;;;;;3.13;1.30;;;;;;;9.79;100.00;102600.69;5103604;28;20055;-82
2023/01/24 04:54:41;;;;;;;1.45;1.00;;;;;;;9.86;100.00;102596.28;5107204;28;20809;-82
2023/01/24 04:57:11;;;;;;;2.30;1.20;;;;;;;9.81;100.00;102583.25;5096677;28;20207;-81
2023/01/24 04:59:38;;;;;;;2.20;1.20;;;;;;;9.76;100.00;102586.75;5096318;28;20048;-82
2023/01/24 05:02:05;;;;;;;3.65;1.40;;;;;;;9.74;100.00;102594.63;5097665;28;20047;-82
2023/01/24 05:04:32;;;;;;;2.75;1.25;;;;;;;9.68;100.00;102603.38;5100745;28;20557;-82
2023/01/24 05:06:58;;;;;;;2.70;1.20;;;;;;;9.72;100.00;102608.56;5098991;28;20048;-82
2023/01/24 05:09:25;;;;;;;3.13;1.17;;;;;;;9.68;100.00;102595.53;5101042;28;20078;-82
2023/01/24 05:11:52;;;;;;;2.95;1.17;;;;;;;9.71;100.00;102602.47;5099062;28;20051;-82
2023/01/24 05:14:18;;;;;;;1.75;1.00;;;;;;;9.66;100.00;102581.56;5102884;28;20075;-82
2023/01/24 05:16:45;;;;;;;2.78;1.17;;;;;;;9.69;100.00;102588.53;5099246;28;20059;-82
2023/01/24 05:19:12;;;;;;;1.67;1.08;;;;;;;9.78;100.00;102590.25;5101663;28;20040;-82
2023/01/24 05:21:38;;;;;;;1.63;1.05;;;;;;;9.75;100.00;102601.56;5096873;28;20097;-81
2023/01/24 05:24:06;;;;;;;4.60;1.20;;;;;;;9.71;100.00;102599.84;5097416;28;20052;-82
2023/01/24 05:26:33;;;;;;;1.63;1.00;;;;;;;9.82;100.00;102595.44;5102069;28;20409;-82
2023/01/24 05:29:00;;;;;;;5.22;1.58;;;;;;;9.69;100.00;102563.22;5101287;28;20485;-82
2023/01/24 05:31:28;;;;;;;1.73;1.02;;;;;;;9.72;100.00;102566.72;5101835;28;20139;-82
2023/01/24 05:33:55;;;;;;;2.00;1.10;;;;;;;9.76;100.00;102576.31;5094652;28;20139;-82
2023/01/24 05:36:26;;;;;;;2.53;1.05;;;;;;;9.77;100.00;102584.13;5110797;28;20043;-83
2023/01/24 05:38:52;;;;;;;2.30;1.13;;;;;;;9.77;100.00;102591.09;5110577;28;20044;-82
2023/01/24 05:41:20;;;;;;;3.38;1.27;;;;;;;9.65;100.00;102578.94;5110490;28;20054;-82
2023/01/24 05:43:48;;;;;;;2.25;1.10;;;;;;;9.72;100.00;102593.75;5111563;28;20051;-82
2023/01/24 05:46:20;;;;;;;2.88;1.27;;;;;;;9.59;100.00;102578.97;5112063;28;20130;-82
2023/01/24 05:48:48;;;;;;;2.28;1.00;;;;;;;9.67;100.00;102601.63;5098204;28;20130;-82
2023/01/24 05:51:19;;;;;;;1.35;0.98;;;;;;;9.68;100.00;102599.84;5110586;28;20067;-82
2023/01/24 05:53:46;;;;;;;3.80;1.20;;;;;;;9.59;100.00;102592.91;5111912;28;20052;-82
2023/01/24 05:56:15;;;;;;;2.17;1.17;;;;;;;9.63;100.00;102599.91;5099749;28;20451;-82
2023/01/24 05:58:44;;;;;;;1.48;1.00;;;;;;;9.54;100.00;102575.50;5108291;28;20039;-82
2023/01/24 06:01:12;;;;;;;1.60;0.82;;;;;;;9.66;100.00;102597.25;5107103;28;20043;-82
2023/01/24 06:03:40;;;;;;;1.75;0.98;;;;;;;9.56;100.00;102598.19;5104618;28;20626;-82
2023/01/24 06:06:09;;;;;;;1.23;1.02;;;;;;;9.48;100.00;102590.34;5101029;28;20419;-81
2023/01/24 06:08:36;;;;;;;2.13;1.10;;;;;;;9.49;100.00;102585.97;5101983;28;20055;-81
2023/01/24 06:11:17;;;;;;;2.13;1.10;;;;;;;9.56;100.00;102595.56;5106937;28;20052;-82
2023/01/24 06:13:44;;;;;;;1.95;1.00;;;;;;;9.47;100.00;102598.19;5103824;28;20063;-82
2023/01/24 06:16:14;;;;;;;1.52;1.10;;;;;;;9.43;100.00;102599.94;5101163;28;20052;-82
2023/01/24 06:18:41;;;;;;;4.15;1.38;;;;;;;9.42;100.00;102579.91;5103558;28;20067;-82
2023/01/24 06:21:11;;;;;;;2.05;1.10;;;;;;;9.59;100.00;102590.28;5108755;28;21131;-82
2023/01/24 06:23:38;;;;;;;1.50;0.90;;;;;;;9.30;100.00;102559.91;5103703;28;20048;-83
2023/01/24 06:26:07;;;;;;;1.45;1.08;;;;;;;9.31;100.00;102543.34;5103600;28;20476;-84
2023/01/24 06:28:34;;;;;;;1.05;0.90;;;;;;;9.48;100.00;102573.78;5110631;28;20068;-82
2023/01/24 06:31:27;;;;;;;1.88;1.00;;;;;;;9.69;100.00;102596.38;5110135;28;20051;-82
2023/01/24 06:34:31;;;;;;;1.70;1.10;;;;;;;9.67;100.00;102600.75;5107509;28;20043;-84
2023/01/24 06:37:14;;;;;;;2.63;1.00;;;;;;;9.71;100.00;102601.59;5108036;28;20056;-83
2023/01/24 06:39:49;;;;;;;1.15;0.98;;;;;;;9.65;100.00;102592.00;5108673;28;20370;-84
2023/01/24 06:42:18;;;;;;;4.25;1.55;;;;;;;9.56;100.00;102566.78;5103308;28;20043;-84
2023/01/24 06:44:45;;;;;;;1.30;1.00;;;;;;;9.55;100.00;102578.13;5100606;28;20055;-84
2023/01/24 06:47:12;;;;;;;2.45;1.00;;;;;;;9.53;100.00;102569.41;5102406;28;20055;-84
2023/01/24 06:49:39;;;;;;;3.33;1.00;;;;;;;9.52;100.00;102566.81;5104270;28;20043;-84
2023/01/24 06:52:07;;;;;;;1.70;1.10;;;;;;;9.49;100.00;102586.88;5107495;28;20055;-82
2023/01/24 06:54:34;;;;;;;2.10;1.20;;;;;;;9.62;100.00;102585.06;5101682;28;20051;-83
2023/01/24 06:57:02;;;;;;;1.80;1.00;;;;;;;9.56;100.00;102561.56;5101357;28;20767;-83
2023/01/24 06:59:29;;;;;;;1.48;1.05;;;;;;;9.66;100.00;102578.94;5103676;28;20047;-81
2023/01/24 07:01:55;;;;;;;1.08;0.90;;;;;;;9.47;100.00;102549.41;5104228;28;20496;-82
2023/01/24 07:04:22;;;;;;;2.17;1.15;;;;;;;9.53;100.00;102576.41;5101698;28;20047;-81
2023/01/24 07:06:52;;;;;;;1.85;1.08;;;;;;;9.47;100.00;102570.31;5103221;28;20130;-81
2023/01/24 07:09:23;;;;;;;1.58;1.00;;;;;;;9.70;100.00;102582.41;5101079;28;20838;-82
2023/01/24 07:11:54;;;;;;;1.70;1.00;;;;;;;9.63;100.00;102573.75;5104839;28;20087;-82
2023/01/24 07:14:21;;;;;;;1.88;1.10;;;;;;;9.78;100.00;102583.25;5112220;28;20043;-81
2023/01/24 07:16:49;;;;;;;1.65;1.15;;;;;;;9.79;100.00;102581.50;5105780;28;20769;-82
2023/01/24 07:19:25;;;;;;;2.45;1.10;;;;;;;9.78;100.00;102578.03;5102755;28;20044;-81
2023/01/24 07:21:54;;;;;;;1.50;1.00;;;;;;;9.61;100.00;102574.59;5097802;28;20082;-81
2023/01/24 07:24:23;;;;;;;2.65;1.00;;;;;;;9.80;100.00;102585.88;5097875;28;20127;-82
2023/01/24 07:26:51;;;;;;;2.13;1.08;;;;;;;9.79;100.00;102576.25;5098602;28;20476;-81
2023/01/24 07:29:19;;;;;;;1.65;1.00;;;;;;;9.87;100.00;102588.44;5102390;28;20050;-83
2023/01/24 07:31:49;;;;;;;1.27;1.00;;;;;;;9.71;100.00;102547.53;5103229;28;20570;-83
2023/01/24 07:34:17;;;;;;;1.10;0.90;;;;;;;9.88;100.00;102566.63;5102864;28;20079;-83
2023/01/24 07:36:45;;;;;;;2.95;1.20;;;;;;;9.95;100.00;102577.06;5103703;28;20067;-82
2023/01/24 07:39:13;;;;;;;2.22;1.17;;;;;;;10.02;100.00;102590.13;5107921;28;20047;-82
2023/01/24 07:41:42;;;;;;;2.65;1.20;;;;;;;9.89;100.00;102580.56;5121639;28;20637;-83
2023/01/24 07:44:09;;;;;;;2.42;1.20;;;;;;;9.65;100.00;102564.13;5120296;28;20496;-81
2023/01/24 07:46:36;;;;;;;1.35;1.00;;;;;;;9.55;100.00;102557.19;5117965;28;20051;-81
2023/01/24 07:49:03;;;;;;;1.85;1.10;;;;;;;9.46;100.00;102539.81;5108996;28;20413;-81
2023/01/24 07:51:30;;;;;;;2.80;1.20;;;;;;;9.48;100.00;102547.66;5112379;28;20129;-82
2023/01/24 07:53:57;;;;;;;1.77;1.05;;;;;;;9.49;100.00;102555.50;5101265;28;20047;-83
2023/01/24 07:56:24;;;;;;;2.08;1.00;;;;;;;9.64;100.00;102569.38;5118442;28;20123;-84
2023/01/24 07:58:52;;;;;;;4.00;1.10;;;;;;;9.28;100.00;102571.25;5117902;28;20047;-83
2023/01/24 08:01:20;;;;;;;2.00;1.17;;;;;;;9.07;100.00;102583.47;5117166;28;20119;-84
2023/01/24 08:03:47;;;;;;;2.28;1.00;;;;;;;8.97;100.00;102565.22;5116151;28;20055;-83
2023/01/24 08:06:15;;;;;;;2.85;1.23;;;;;;;8.98;100.00;102585.22;5120644;28;20051;-84
2023/01/24 08:08:42;;;;;;;2.28;1.15;;;;;;;9.14;100.00;102610.47;5119678;28;20404;-82
2023/01/24 08:11:11;;;;;;;3.00;1.20;;;;;;;8.89;100.00;102567.84;5107722;28;20403;-84
2023/01/24 08:13:37;;;;;;;5.18;1.33;;;;;;;8.73;100.00;102560.03;5119910;28;20047;-83
2023/01/24 08:16:05;;;;;;;1.80;1.02;;;;;;;8.80;100.00;102586.13;5123032;28;20039;-84
2023/01/24 08:18:32;;;;;;;2.45;1.20;;;;;;;8.85;100.00;102598.31;5116013;28;20117;-84
2023/01/24 08:20:59;;;;;;;2.70;1.30;;;;;;;9.07;100.00;102640.97;5121884;28;20043;-84
2023/01/24 08:23:26;;;;;;;2.42;1.20;;;;;;;8.68;100.00;102571.34;5121324;28;20043;-84
2023/01/24 08:25:53;;;;;;;3.25;1.25;;;;;;;8.94;100.00;102613.09;5120620;28;20047;-84
2023/01/24 08:28:20;;;;;;;2.60;1.20;;;;;;;8.72;100.00;102587.00;5116444;28;20040;-83
2023/01/24 08:30:47;;;;;;;2.75;1.20;;;;;;;8.95;100.00;102622.69;5112495;28;20469;-84
2023/01/24 08:33:18;;;;;;;2.90;1.30;;;;;;;8.90;100.00;102617.44;5117296;28;20051;-84
2023/01/24 08:35:46;;;;;;;2.97;1.30;;;;;;;9.09;100.00;102627.91;5121280;28;20075;-81
2023/01/24 08:38:14;;;;;;;4.10;1.42;;;;;;;8.90;100.00;102593.09;5105146;27;20401;-83
2023/01/24 08:40:43;;;;;;;3.22;1.50;;;;;;;9.01;100.00;102616.59;5100684;28;20044;-82
2023/01/24 08:43:15;;;;;;;6.07;2.20;;;;;;;8.94;100.00;102607.88;5114882;28;20063;-80
2023/01/24 08:45:42;;;;;;;4.32;1.83;;;;;;;9.10;100.00;102616.56;5118176;28;20047;-83
2023/01/24 08:48:09;;;;;;;3.00;1.33;;;;;;;9.56;100.00;102644.34;5111470;28;20051;-82
2023/01/24 08:50:36;;;;;;;3.28;1.45;;;;;;;9.27;100.00;102632.22;5113724;28;20051;-81
2023/01/24 08:53:03;;;;;;;5.32;1.63;;;;;;;9.39;100.00;102662.72;5112152;28;20215;-82
2023/01/24 08:55:29;;;;;;;2.60;1.40;;;;;;;9.18;100.00;102613.97;5112145;28;20413;-82
2023/01/24 08:58:01;;;;;;;4.28;1.25;;;;;;;9.34;100.00;102626.13;5112861;28;20048;-82
2023/01/24 09:00:29;;;;;;;2.47;1.10;;;;;;;9.32;100.00;102626.13;5110312;28;20040;-82
2023/01/24 09:03:00;;;;;;;2.53;1.10;;;;;;;9.46;100.00;102622.63;5111970;28;20378;-82
2023/01/24 09:05:28;;;;;;;3.40;1.20;;;;;;;9.72;100.00;102655.66;5113756;28;20051;-82
2023/01/24 09:07:56;;;;;;;1.90;1.00;;;;;;;9.45;100.00;102608.66;5112086;28;20051;-82
2023/01/24 09:10:24;;;;;;;2.15;1.00;;;;;;;9.49;100.00;102601.66;5111574;28;20039;-82
2023/01/24 09:12:51;;;;;;;1.77;1.10;;;;;;;9.49;100.00;102607.78;5112329;28;20054;-82
2023/01/24 09:15:18;;;;;;;1.85;1.00;;;;;;;9.69;100.00;102619.91;5100210;28;20052;-82
2023/01/24 09:17:44;;;;;;;1.15;0.88;;;;;;;9.65;100.00;102605.09;5109043;28;20054;-81
2023/01/24 09:20:12;;;;;;;1.33;0.90;;;;;;;10.01;100.00;102655.53;5112271;28;20543;-82
2023/01/24 09:22:39;;;;;;;1.40;0.98;;;;;;;9.92;100.00;102645.13;5110026;28;20044;-82
2023/01/24 09:25:07;;;;;;;1.83;0.98;;;;;;;9.89;100.00;102633.78;5110422;28;20052;-80
2023/01/24 09:27:40;;;;;;;2.30;1.00;;;;;;;9.85;100.00;102612.88;5109090;28;20058;-80
2023/01/24 09:30:09;;;;;;;2.10;1.10;;;;;;;9.89;100.00;102611.97;5109874;28;20044;-82
2023/01/24 09:32:36;;;;;;;2.75;1.10;;;;;;;9.78;100.00;102585.00;5106618;28;20071;-82
2023/01/24 09:35:03;;;;;;;2.13;1.00;;;;;;;10.03;100.00;102628.47;5111503;28;20044;-81
2023/01/24 09:37:30;;;;;;;2.75;1.00;;;;;;;9.95;100.00;102606.72;5111505;28;20044;-81
2023/01/24 09:39:59;;;;;;;4.07;1.10;;;;;;;10.11;100.00;102618.00;5100817;28;20052;-81
2023/01/24 09:42:40;;;;;;;1.30;1.00;;;;;;;10.29;100.00;102640.56;5111577;28;20047;-82
2023/01/24 09:45:12;;;;;;;1.98;1.00;;;;;;;10.34;100.00;102643.16;5103357;28;20043;-81
2023/01/24 09:47:49;;;;;;;1.02;0.90;;;;;;;10.20;100.00;102617.94;5112243;28;20144;-82
2023/01/24 09:50:29;;;;;;;0.90;0.80;;;;;;;10.26;100.00;102611.78;5112801;28;20067;-82
2023/01/24 09:52:57;;;;;;;1.63;1.00;;;;;;;10.47;100.00;102639.59;5113363;28;20139;-82
2023/01/24 09:55:30;;;;;;;2.15;1.10;;;;;;;10.45;100.00;102642.22;5113173;28;20050;-81
2023/01/24 09:58:34;;;;;;;2.90;1.10;;;;;;;10.27;100.00;102631.84;5112378;28;20060;-81
2023/01/24 10:01:05;;;;;;;3.97;1.20;;;;;;;10.19;100.00;102618.78;5048741;28;20413;-82
2023/01/24 10:03:32;;;;;;;2.30;1.13;;;;;;;10.20;100.00;102619.69;5103952;28;20528;-82
2023/01/24 10:06:08;;;;;;;2.30;1.08;;;;;;;10.26;100.00;102619.63;5111589;28;20056;-82
2023/01/24 10:09:12;;;;;;;1.85;1.00;;;;;;;10.50;100.00;102634.34;5110969;28;20058;-82
2023/01/24 10:11:51;;;;;;;1.92;1.20;;;;;;;10.53;100.00;102633.44;5111862;28;20055;-82
2023/01/24 10:14:33;;;;;;;1.85;1.10;;;;;;;10.72;100.00;102631.56;5113304;28;20058;-82
2023/01/24 10:17:28;;;;;;;2.25;1.10;;;;;;;10.50;100.00;102571.50;5109375;28;20059;-82
2023/01/24 10:20:25;;;;;;;2.30;1.02;;;;;;;11.13;100.00;102640.81;5091357;28;20044;-82
2023/01/24 10:22:55;;;;;;;2.00;1.15;;;;;;;11.35;100.00;102634.47;5099222;28;20057;-82
2023/01/24 10:25:26;;;;;;;2.28;1.20;;;;;;;11.41;100.00;102609.94;5112311;28;20055;-82
2023/01/24 10:27:57;;;;;;;1.50;0.95;;;;;;;11.73;100.00;102627.91;5103691;28;20059;-81
2023/01/24 10:30:41;;;;;;;2.15;1.02;;;;;;;11.86;100.00;102633.00;5099471;28;20051;-82
2023/01/24 10:33:18;;;;;;;1.42;0.90;;;;;;;11.87;100.00;102598.88;5107936;28;20051;-81
2023/01/24 10:36:04;;;;;;;1.67;0.90;;;;;;;12.23;100.00;102627.31;5100232;28;20052;-82
2023/01/24 10:38:32;;;;;;;2.65;1.10;;;;;;;12.26;100.00;102608.88;5105603;28;20040;-82
2023/01/24 10:41:14;;;;;;;1.95;1.15;;;;;;;12.47;100.00;102623.47;5108991;28;20121;-82
2023/01/24 10:43:45;;;;;;;1.98;1.00;;;;;;;12.54;100.00;102609.34;5100977;28;20054;-82
2023/01/24 10:46:34;;;;;;;1.85;0.95;;;;;;;12.68;100.00;102603.84;5115319;28;20055;-82
2023/01/24 10:49:04;;;;;;;2.30;1.20;;;;;;;12.75;100.00;102608.13;5115859;28;20074;-81
2023/01/24 10:51:31;;;;;;;3.55;1.20;;;;;;;12.63;100.00;102605.69;5114813;28;20039;-82
2023/01/24 10:54:02;;;;;;;3.15;1.30;;;;;;;12.43;100.00;102571.84;5115001;28;20495;-82
2023/01/24 10:56:29;;;;;;;2.47;1.00;;;;;;;12.46;100.00;102562.13;5114283;28;20039;-82
2023/01/24 10:59:05;;;;;;;2.50;1.00;;;;;;;12.48;100.00;102572.63;5115680;28;20104;-80
2023/01/24 11:01:36;;;;;;;2.63;1.05;;;;;;;12.69;100.00;102600.31;5114462;28;20039;-81
2023/01/24 11:04:27;;;;;;;3.22;1.20;;;;;;;12.57;100.00;102569.88;5113852;28;20039;-80
2023/01/24 11:06:54;;;;;;;3.20;1.20;;;;;;;12.49;100.00;102559.47;5112057;28;20047;-81
2023/01/24 11:09:29;;;;;;;3.15;1.10;;;;;;;12.58;100.00;102581.25;5107569;28;20039;-80
2023/01/24 11:11:58;;;;;;;2.47;1.20;;;;;;;12.04;100.00;102503.28;5116001;28;20055;-81
2023/01/24 11:14:34;;;;;;;2.75;1.08;;;;;;;12.35;100.00;102561.47;5114859;28;20052;-81
2023/01/24 11:17:02;;;;;;;3.42;1.20;;;;;;;12.59;100.00;102582.97;5102429;28;20046;-81
2023/01/24 11:19:36;;;;;;;4.00;1.23;;;;;;;12.40;100.00;102545.63;5102285;28;20054;-81
2023/01/24 11:22:18;;;;;;;4.47;1.40;;;;;;;12.52;100.00;102556.81;5115293;28;20043;-82
2023/01/24 11:24:46;;;;;;;3.20;1.33;;;;;;;12.58;100.00;102563.72;5101388;28;20052;-80
2023/01/24 11:27:19;;;;;;;2.72;1.10;;;;;;;12.50;100.00;102540.19;5111700;28;20062;-81
2023/01/24 11:30:05;;;;;;;2.67;1.23;;;;;;;12.52;100.00;102535.78;5100650;28;20056;-81
2023/01/24 11:32:46;;;;;;;4.10;1.20;;;;;;;12.34;100.00;102499.28;5115141;28;20051;-81
2023/01/24 11:35:24;;;;;;;2.13;1.02;;;;;;;12.62;100.00;102525.97;5114428;28;20051;-81
2023/01/24 11:38:09;;;;;;;2.90;1.23;;;;;;;13.00;100.00;102568.25;5113120;28;20089;-79
2023/01/24 11:40:51;;;;;;;2.83;1.15;;;;;;;12.78;100.00;102517.81;5102560;28;20052;-81
2023/01/24 11:43:30;;;;;;;3.63;1.30;;;;;;;13.03;100.00;102561.16;5099893;28;20047;-81
2023/01/24 11:46:09;;;;;;;5.95;1.65;;;;;;;12.75;100.00;102502.09;5114621;28;20048;-81
2023/01/24 11:48:52;;;;;;;3.47;1.40;;;;;;;12.58;100.00;102471.75;5107107;28;20063;-81
2023/01/24 11:51:56;;;;;;;2.67;1.13;;;;;;;13.13;100.00;102542.56;5107064;28;20055;-80
2023/01/24 11:54:58;;;;;;;4.32;1.25;;;;;;;13.06;100.00;102547.09;5115003;28;20044;-83
2023/01/24 11:57:47;;;;;;;2.78;1.17;;;;;;;13.07;100.00;102541.81;5071865;28;20050;-82
2023/01/24 12:00:23;;;;;;;3.20;1.30;;;;;;;13.00;100.00;102536.69;5114875;28;20044;-81
2023/01/24 12:02:58;;;;;;;3.35;1.20;;;;;;;13.07;100.00;102538.31;5112202;28;20054;-81
2023/01/24 12:05:44;;;;;;;4.72;1.33;;;;;;;13.10;100.00;102546.13;5110592;28;20051;-81
2023/01/24 12:08:11;;;;;;;4.68;1.30;;;;;;;13.23;100.00;102528.34;5106734;28;20052;-81
2023/01/24 12:10:52;;;;;;;2.88;1.20;;;;;;;13.14;100.00;102525.88;5114446;27;20056;-81
2023/01/24 12:13:52;;;;;;;2.63;1.20;;;;;;;13.06;100.00;102511.13;5113820;28;20477;-81
2023/01/24 12:16:43;;;;;;;3.35;1.27;;;;;;;13.07;100.00;102518.13;5113312;28;20077;-81
2023/01/24 12:19:38;;;;;;;2.05;1.00;;;;;;;13.11;100.00;102511.03;5106953;28;20051;-80